sensor_id;sensor_type;location;lat;lon;timestamp;temperature;humidity
53310;DHT22;39197;53.200;5.792;2023-02-20T00:01:48;6.70;99.90
53310;DHT22;39197;53.200;5.792;2023-02-20T00:04:14;6.70;99.90
53310;DHT22;39197;53.200;5.792;2023-02-20T00:06:39;6.70;99.90
53310;DHT22;39197;53.200;5.792;2023-02-20T00:09:05;6.70;99.90
53310;DHT22;39197;53.200;5.792;2023-02-20T00:11:30;6.80;99.90
53310;DHT22;39197;53.200;5.792;2023-02-20T00:13:56;6.80;99.90
53310;DHT22;39197;53.200;5.792;2023-02-20T00:16:22;6.70;99.90
53310;DHT22;39197;53.200;5.792;2023-02-20T00:18:47;6.70;99.90
53310;DHT22;39197;53.200;5.792;2023-02-20T00:21:13;6.80;99.90
53310;DHT22;39197;53.200;5.792;2023-02-20T00:23:38;6.80;99.90
53310;DHT22;39197;53.200;5.792;2023-02-20T00:26:08;6.80;99.90
53310;DHT22;39197;53.200;5.792;2023-02-20T00:28:34;6.80;99.90
53310;DHT22;39197;53.200;5.792;2023-02-20T00:30:59;6.80;99.90
53310;DHT22;39197;53.200;5.792;2023-02-20T00:33:25;6.80;99.90
53310;DHT22;39197;53.200;5.792;2023-02-20T00:35:51;6.80;99.90
53310;DHT22;39197;53.200;5.792;2023-02-20T00:38:16;6.80;99.90
53310;DHT22;39197;53.200;5.792;2023-02-20T00:40:43;6.90;99.90
53310;DHT22;39197;53.200;5.792;2023-02-20T00:43:09;6.90;99.90
53310;DHT22;39197;53.200;5.792;2023-02-20T00:45:34;6.90;99.90
53310;DHT22;39197;53.200;5.792;2023-02-20T00:48:00;6.90;99.90
53310;DHT22;39197;53.200;5.792;2023-02-20T00:50:25;6.90;99.90
53310;DHT22;39197;53.200;5.792;2023-02-20T00:52:51;6.90;99.90
53310;DHT22;39197;53.200;5.792;2023-02-20T00:55:17;6.90;99.90
53310;DHT22;39197;53.200;5.792;2023-02-20T00:57:42;7.00;99.90
53310;DHT22;39197;53.200;5.792;2023-02-20T01:00:15;7.00;99.90
53310;DHT22;39197;53.200;5.792;2023-02-20T01:02:40;7.00;99.90
53310;DHT22;39197;53.200;5.792;2023-02-20T01:05:06;7.00;99.90
53310;DHT22;39197;53.200;5.792;2023-02-20T01:07:32;7.10;99.90
53310;DHT22;39197;53.200;5.792;2023-02-20T01:09:58;7.10;99.90
53310;DHT22;39197;53.200;5.792;2023-02-20T01:12:24;7.10;99.90
53310;DHT22;39197;53.200;5.792;2023-02-20T01:14:49;7.20;99.90
53310;DHT22;39197;53.200;5.792;2023-02-20T01:17:15;7.20;99.90
53310;DHT22;39197;53.200;5.792;2023-02-20T01:19:40;7.30;99.90
53310;DHT22;39197;53.200;5.792;2023-02-20T01:22:08;7.30;99.90
53310;DHT22;39197;53.200;5.792;2023-02-20T01:24:34;7.40;99.90
53310;DHT22;39197;53.200;5.792;2023-02-20T01:26:59;7.40;99.90
53310;DHT22;39197;53.200;5.792;2023-02-20T01:29:25;7.40;99.90
53310;DHT22;39197;53.200;5.792;2023-02-20T01:31:51;7.30;99.90
53310;DHT22;39197;53.200;5.792;2023-02-20T01:34:17;7.30;99.90
53310;DHT22;39197;53.200;5.792;2023-02-20T01:36:52;7.30;99.90
53310;DHT22;39197;53.200;5.792;2023-02-20T01:39:26;7.20;99.90
53310;DHT22;39197;53.200;5.792;2023-02-20T01:42:01;7.20;99.90
53310;DHT22;39197;53.200;5.792;2023-02-20T01:44:30;7.30;99.90
53310;DHT22;39197;53.200;5.792;2023-02-20T01:46:58;7.20;99.90
53310;DHT22;39197;53.200;5.792;2023-02-20T01:52:06;7.10;99.90
53310;DHT22;39197;53.200;5.792;2023-02-20T01:54:35;7.10;99.90
53310;DHT22;39197;53.200;5.792;2023-02-20T01:57:04;7.10;99.90
53310;DHT22;39197;53.200;5.792;2023-02-20T01:59:36;7.10;99.90
53310;DHT22;39197;53.200;5.792;2023-02-20T02:02:04;7.00;99.90
53310;DHT22;39197;53.200;5.792;2023-02-20T02:04:30;7.10;99.90
53310;DHT22;39197;53.200;5.792;2023-02-20T02:06:57;7.10;99.90
53310;DHT22;39197;53.200;5.792;2023-02-20T02:09:34;7.20;99.90
53310;DHT22;39197;53.200;5.792;2023-02-20T02:12:01;7.20;99.90
53310;DHT22;39197;53.200;5.792;2023-02-20T02:14:26;7.10;99.90
53310;DHT22;39197;53.200;5.792;2023-02-20T02:17:18;7.20;99.90
53310;DHT22;39197;53.200;5.792;2023-02-20T02:20:53;7.20;99.90
53310;DHT22;39197;53.200;5.792;2023-02-20T02:28:59;7.30;99.90
53310;DHT22;39197;53.200;5.792;2023-02-20T02:32:03;7.30;99.90
53310;DHT22;39197;53.200;5.792;2023-02-20T02:45:27;7.30;99.90
53310;DHT22;39197;53.200;5.792;2023-02-20T02:48:18;7.20;99.90
53310;DHT22;39197;53.200;5.792;2023-02-20T02:50:46;7.20;99.90
53310;DHT22;39197;53.200;5.792;2023-02-20T02:53:13;7.20;99.90
53310;DHT22;39197;53.200;5.792;2023-02-20T02:55:39;7.20;99.90
53310;DHT22;39197;53.200;5.792;2023-02-20T02:58:05;7.10;99.90
53310;DHT22;39197;53.200;5.792;2023-02-20T03:00:41;7.20;99.90
53310;DHT22;39197;53.200;5.792;2023-02-20T03:03:18;7.20;99.90
53310;DHT22;39197;53.200;5.792;2023-02-20T03:08:31;7.20;99.90
53310;DHT22;39197;53.200;5.792;2023-02-20T03:11:08;7.20;99.90
53310;DHT22;39197;53.200;5.792;2023-02-20T03:13:51;7.20;99.90
53310;DHT22;39197;53.200;5.792;2023-02-20T03:16:56;7.30;99.90
53310;DHT22;39197;53.200;5.792;2023-02-20T03:19:34;7.30;99.90
53310;DHT22;39197;53.200;5.792;2023-02-20T03:22:02;7.40;99.90
53310;DHT22;39197;53.200;5.792;2023-02-20T03:24:31;7.40;99.90
53310;DHT22;39197;53.200;5.792;2023-02-20T03:26:58;7.30;99.90
53310;DHT22;39197;53.200;5.792;2023-02-20T03:29:33;7.40;99.90
53310;DHT22;39197;53.200;5.792;2023-02-20T03:32:04;7.40;99.90
53310;DHT22;39197;53.200;5.792;2023-02-20T03:34:51;7.50;99.90
53310;DHT22;39197;53.200;5.792;2023-02-20T03:37:37;7.50;99.90
53310;DHT22;39197;53.200;5.792;2023-02-20T03:40:23;7.60;99.90
53310;DHT22;39197;53.200;5.792;2023-02-20T03:43:14;7.60;99.90
53310;DHT22;39197;53.200;5.792;2023-02-20T03:46:08;7.60;99.90
53310;DHT22;39197;53.200;5.792;2023-02-20T03:48:51;7.50;99.90
53310;DHT22;39197;53.200;5.792;2023-02-20T03:51:18;7.60;99.90
53310;DHT22;39197;53.200;5.792;2023-02-20T03:53:44;7.60;99.90
53310;DHT22;39197;53.200;5.792;2023-02-20T03:56:13;7.70;99.90
53310;DHT22;39197;53.200;5.792;2023-02-20T03:58:44;7.60;99.90
53310;DHT22;39197;53.200;5.792;2023-02-20T04:01:12;7.60;99.90
53310;DHT22;39197;53.200;5.792;2023-02-20T04:03:44;7.60;99.90
53310;DHT22;39197;53.200;5.792;2023-02-20T04:06:12;7.60;99.90
53310;DHT22;39197;53.200;5.792;2023-02-20T04:08:51;7.50;99.90
53310;DHT22;39197;53.200;5.792;2023-02-20T04:11:29;7.50;99.90
53310;DHT22;39197;53.200;5.792;2023-02-20T04:13:57;7.60;99.90
53310;DHT22;39197;53.200;5.792;2023-02-20T04:16:23;7.50;99.90
53310;DHT22;39197;53.200;5.792;2023-02-20T04:18:49;7.50;99.90
53310;DHT22;39197;53.200;5.792;2023-02-20T04:21:31;7.50;99.90
53310;DHT22;39197;53.200;5.792;2023-02-20T04:24:05;7.50;99.90
53310;DHT22;39197;53.200;5.792;2023-02-20T04:26:32;7.40;99.90
53310;DHT22;39197;53.200;5.792;2023-02-20T04:28:58;7.50;99.90
53310;DHT22;39197;53.200;5.792;2023-02-20T04:31:25;7.50;99.90
53310;DHT22;39197;53.200;5.792;2023-02-20T04:33:51;7.50;99.90
53310;DHT22;39197;53.200;5.792;2023-02-20T04:36:17;7.50;99.90
53310;DHT22;39197;53.200;5.792;2023-02-20T04:38:42;7.40;99.90
53310;DHT22;39197;53.200;5.792;2023-02-20T04:41:08;7.40;99.90
53310;DHT22;39197;53.200;5.792;2023-02-20T04:43:33;7.40;99.90
53310;DHT22;39197;53.200;5.792;2023-02-20T04:45:59;7.40;99.90
53310;DHT22;39197;53.200;5.792;2023-02-20T04:48:24;7.40;99.90
53310;DHT22;39197;53.200;5.792;2023-02-20T04:50:50;7.40;99.90
53310;DHT22;39197;53.200;5.792;2023-02-20T04:53:16;7.40;99.90
53310;DHT22;39197;53.200;5.792;2023-02-20T04:55:41;7.50;99.90
53310;DHT22;39197;53.200;5.792;2023-02-20T04:58:07;7.40;99.90
53310;DHT22;39197;53.200;5.792;2023-02-20T05:00:33;7.40;99.90
53310;DHT22;39197;53.200;5.792;2023-02-20T05:02:58;7.30;99.90
53310;DHT22;39197;53.200;5.792;2023-02-20T05:05:26;7.40;99.90
53310;DHT22;39197;53.200;5.792;2023-02-20T05:08:03;7.40;99.90
53310;DHT22;39197;53.200;5.792;2023-02-20T05:10:31;7.40;99.90
53310;DHT22;39197;53.200;5.792;2023-02-20T05:12:57;7.50;99.90
53310;DHT22;39197;53.200;5.792;2023-02-20T05:15:23;7.40;99.90
53310;DHT22;39197;53.200;5.792;2023-02-20T05:17:50;7.40;99.90
53310;DHT22;39197;53.200;5.792;2023-02-20T05:20:16;7.40;99.90
53310;DHT22;39197;53.200;5.792;2023-02-20T05:22:43;7.50;99.90
53310;DHT22;39197;53.200;5.792;2023-02-20T05:25:09;7.40;99.90
53310;DHT22;39197;53.200;5.792;2023-02-20T05:27:35;7.40;99.90
53310;DHT22;39197;53.200;5.792;2023-02-20T05:30:01;7.50;99.90
53310;DHT22;39197;53.200;5.792;2023-02-20T05:32:28;7.40;99.90
53310;DHT22;39197;53.200;5.792;2023-02-20T05:34:54;7.50;99.90
53310;DHT22;39197;53.200;5.792;2023-02-20T05:37:22;7.40;99.90
53310;DHT22;39197;53.200;5.792;2023-02-20T05:39:48;7.40;99.90
53310;DHT22;39197;53.200;5.792;2023-02-20T05:42:14;7.40;99.90
53310;DHT22;39197;53.200;5.792;2023-02-20T05:44:40;7.40;99.90
53310;DHT22;39197;53.200;5.792;2023-02-20T05:47:06;7.40;99.90
53310;DHT22;39197;53.200;5.792;2023-02-20T05:49:33;7.50;99.90
53310;DHT22;39197;53.200;5.792;2023-02-20T05:52:00;7.40;99.90
53310;DHT22;39197;53.200;5.792;2023-02-20T05:54:26;7.40;99.90
53310;DHT22;39197;53.200;5.792;2023-02-20T05:56:52;7.50;99.90
53310;DHT22;39197;53.200;5.792;2023-02-20T05:59:19;7.40;99.90
53310;DHT22;39197;53.200;5.792;2023-02-20T06:01:46;7.40;99.90
53310;DHT22;39197;53.200;5.792;2023-02-20T06:04:12;7.40;99.90
53310;DHT22;39197;53.200;5.792;2023-02-20T06:06:40;7.40;99.90
53310;DHT22;39197;53.200;5.792;2023-02-20T06:09:07;7.40;99.90
53310;DHT22;39197;53.200;5.792;2023-02-20T06:11:34;7.40;99.90
53310;DHT22;39197;53.200;5.792;2023-02-20T06:14:00;7.40;99.90
53310;DHT22;39197;53.200;5.792;2023-02-20T06:16:27;7.50;99.90
53310;DHT22;39197;53.200;5.792;2023-02-20T06:18:53;7.40;99.90
53310;DHT22;39197;53.200;5.792;2023-02-20T06:21:19;7.40;99.90
53310;DHT22;39197;53.200;5.792;2023-02-20T06:23:48;7.40;99.90
53310;DHT22;39197;53.200;5.792;2023-02-20T06:26:14;7.40;99.90
53310;DHT22;39197;53.200;5.792;2023-02-20T06:28:41;7.40;99.90
53310;DHT22;39197;53.200;5.792;2023-02-20T06:31:07;7.30;99.90
53310;DHT22;39197;53.200;5.792;2023-02-20T06:33:33;7.40;99.90
53310;DHT22;39197;53.200;5.792;2023-02-20T06:35:59;7.30;99.90
53310;DHT22;39197;53.200;5.792;2023-02-20T06:38:25;7.40;99.90
53310;DHT22;39197;53.200;5.792;2023-02-20T06:40:51;7.40;99.90
53310;DHT22;39197;53.200;5.792;2023-02-20T06:43:17;7.30;99.90
53310;DHT22;39197;53.200;5.792;2023-02-20T06:45:42;7.40;99.90
53310;DHT22;39197;53.200;5.792;2023-02-20T06:48:08;7.30;99.90
53310;DHT22;39197;53.200;5.792;2023-02-20T06:50:34;7.30;99.90
53310;DHT22;39197;53.200;5.792;2023-02-20T06:52:59;7.30;99.90
53310;DHT22;39197;53.200;5.792;2023-02-20T06:55:25;7.40;99.90
53310;DHT22;39197;53.200;5.792;2023-02-20T06:57:51;7.30;99.90
53310;DHT22;39197;53.200;5.792;2023-02-20T07:00:17;7.40;99.90
53310;DHT22;39197;53.200;5.792;2023-02-20T07:02:43;7.40;99.90
53310;DHT22;39197;53.200;5.792;2023-02-20T07:05:10;7.40;99.90
53310;DHT22;39197;53.200;5.792;2023-02-20T07:07:36;7.40;99.90
53310;DHT22;39197;53.200;5.792;2023-02-20T07:10:02;7.40;99.90
53310;DHT22;39197;53.200;5.792;2023-02-20T07:12:30;7.50;99.90
53310;DHT22;39197;53.200;5.792;2023-02-20T07:14:56;7.50;99.90
53310;DHT22;39197;53.200;5.792;2023-02-20T07:17:22;7.50;99.90
53310;DHT22;39197;53.200;5.792;2023-02-20T07:19:47;7.40;99.90
53310;DHT22;39197;53.200;5.792;2023-02-20T07:22:13;7.40;99.90
53310;DHT22;39197;53.200;5.792;2023-02-20T07:24:38;7.50;99.90
53310;DHT22;39197;53.200;5.792;2023-02-20T07:27:06;7.50;99.90
53310;DHT22;39197;53.200;5.792;2023-02-20T07:29:32;7.50;99.90
53310;DHT22;39197;53.200;5.792;2023-02-20T07:31:58;7.50;99.90
53310;DHT22;39197;53.200;5.792;2023-02-20T07:34:23;7.40;99.90
53310;DHT22;39197;53.200;5.792;2023-02-20T07:36:49;7.40;99.90
53310;DHT22;39197;53.200;5.792;2023-02-20T07:39:15;7.50;99.90
53310;DHT22;39197;53.200;5.792;2023-02-20T07:41:41;7.40;99.90
53310;DHT22;39197;53.200;5.792;2023-02-20T07:44:06;7.50;99.90
53310;DHT22;39197;53.200;5.792;2023-02-20T07:46:32;7.60;99.90
53310;DHT22;39197;53.200;5.792;2023-02-20T07:49:03;7.60;99.90
53310;DHT22;39197;53.200;5.792;2023-02-20T07:51:29;7.70;99.90
53310;DHT22;39197;53.200;5.792;2023-02-20T07:53:55;7.80;99.90
53310;DHT22;39197;53.200;5.792;2023-02-20T07:56:21;7.70;99.90
53310;DHT22;39197;53.200;5.792;2023-02-20T07:58:47;7.80;99.90
53310;DHT22;39197;53.200;5.792;2023-02-20T08:01:13;7.80;99.90
53310;DHT22;39197;53.200;5.792;2023-02-20T08:03:39;7.80;99.90
53310;DHT22;39197;53.200;5.792;2023-02-20T08:06:05;7.90;99.90
53310;DHT22;39197;53.200;5.792;2023-02-20T08:08:30;7.90;99.90
53310;DHT22;39197;53.200;5.792;2023-02-20T08:10:56;7.90;99.90
53310;DHT22;39197;53.200;5.792;2023-02-20T08:13:22;8.00;99.90
53310;DHT22;39197;53.200;5.792;2023-02-20T08:15:47;8.00;99.90
53310;DHT22;39197;53.200;5.792;2023-02-20T08:18:14;8.00;99.90
53310;DHT22;39197;53.200;5.792;2023-02-20T08:20:40;8.00;99.90
53310;DHT22;39197;53.200;5.792;2023-02-20T08:23:15;8.00;99.90
53310;DHT22;39197;53.200;5.792;2023-02-20T08:25:40;8.00;99.90
53310;DHT22;39197;53.200;5.792;2023-02-20T08:28:06;8.00;99.90
53310;DHT22;39197;53.200;5.792;2023-02-20T08:30:32;8.10;99.90
53310;DHT22;39197;53.200;5.792;2023-02-20T08:32:57;8.10;99.90
53310;DHT22;39197;53.200;5.792;2023-02-20T08:35:23;8.00;99.90
53310;DHT22;39197;53.200;5.792;2023-02-20T08:37:51;8.10;99.90
53310;DHT22;39197;53.200;5.792;2023-02-20T08:40:17;8.10;99.90
53310;DHT22;39197;53.200;5.792;2023-02-20T08:42:42;8.20;99.90
53310;DHT22;39197;53.200;5.792;2023-02-20T08:45:08;8.10;99.90
53310;DHT22;39197;53.200;5.792;2023-02-20T08:47:34;8.10;99.90
53310;DHT22;39197;53.200;5.792;2023-02-20T08:50:00;8.20;99.90
53310;DHT22;39197;53.200;5.792;2023-02-20T08:52:26;8.20;99.90
53310;DHT22;39197;53.200;5.792;2023-02-20T08:54:51;8.20;99.90
53310;DHT22;39197;53.200;5.792;2023-02-20T08:57:18;8.20;99.90
53310;DHT22;39197;53.200;5.792;2023-02-20T08:59:44;8.20;99.90
53310;DHT22;39197;53.200;5.792;2023-02-20T09:02:19;8.20;99.90
53310;DHT22;39197;53.200;5.792;2023-02-20T09:04:45;8.10;99.90
53310;DHT22;39197;53.200;5.792;2023-02-20T09:07:13;8.20;99.90
53310;DHT22;39197;53.200;5.792;2023-02-20T09:09:38;8.20;99.90
53310;DHT22;39197;53.200;5.792;2023-02-20T09:12:05;8.20;99.90
53310;DHT22;39197;53.200;5.792;2023-02-20T09:14:31;8.30;99.90
53310;DHT22;39197;53.200;5.792;2023-02-20T09:16:56;8.20;99.90
53310;DHT22;39197;53.200;5.792;2023-02-20T09:19:22;8.30;99.90
53310;DHT22;39197;53.200;5.792;2023-02-20T09:21:49;8.30;99.90
53310;DHT22;39197;53.200;5.792;2023-02-20T09:24:15;8.30;99.90
53310;DHT22;39197;53.200;5.792;2023-02-20T09:26:40;8.30;99.90
53310;DHT22;39197;53.200;5.792;2023-02-20T09:29:06;8.30;99.90
53310;DHT22;39197;53.200;5.792;2023-02-20T09:31:32;8.30;99.90
53310;DHT22;39197;53.200;5.792;2023-02-20T09:33:57;8.30;99.90
53310;DHT22;39197;53.200;5.792;2023-02-20T09:36:23;8.40;99.90
53310;DHT22;39197;53.200;5.792;2023-02-20T09:38:49;8.40;99.90
53310;DHT22;39197;53.200;5.792;2023-02-20T09:41:28;8.40;99.90
53310;DHT22;39197;53.200;5.792;2023-02-20T09:44:39;8.40;99.90
53310;DHT22;39197;53.200;5.792;2023-02-20T09:47:33;8.50;99.90
53310;DHT22;39197;53.200;5.792;2023-02-20T09:50:08;8.40;99.90
53310;DHT22;39197;53.200;5.792;2023-02-20T09:52:37;8.40;99.90
53310;DHT22;39197;53.200;5.792;2023-02-20T09:55:09;8.40;99.90
53310;DHT22;39197;53.200;5.792;2023-02-20T09:57:37;8.50;99.90
53310;DHT22;39197;53.200;5.792;2023-02-20T10:00:20;8.50;99.90
53310;DHT22;39197;53.200;5.792;2023-02-20T10:05:30;8.60;99.90
53310;DHT22;39197;53.200;5.792;2023-02-20T10:07:56;8.70;99.90
53310;DHT22;39197;53.200;5.792;2023-02-20T10:13:28;8.70;99.90
53310;DHT22;39197;53.200;5.792;2023-02-20T10:16:12;8.70;99.90
53310;DHT22;39197;53.200;5.792;2023-02-20T10:24:41;8.80;99.90
53310;DHT22;39197;53.200;5.792;2023-02-20T10:27:37;8.80;99.90
53310;DHT22;39197;53.200;5.792;2023-02-20T10:30:05;8.80;99.90
53310;DHT22;39197;53.200;5.792;2023-02-20T10:32:47;8.90;99.90
53310;DHT22;39197;53.200;5.792;2023-02-20T10:35:24;8.90;99.90
53310;DHT22;39197;53.200;5.792;2023-02-20T10:37:56;8.90;99.90
53310;DHT22;39197;53.200;5.792;2023-02-20T10:40:26;9.00;99.90
53310;DHT22;39197;53.200;5.792;2023-02-20T10:43:01;9.00;99.90
53310;DHT22;39197;53.200;5.792;2023-02-20T10:45:35;9.00;99.90
53310;DHT22;39197;53.200;5.792;2023-02-20T10:48:06;9.10;99.90
53310;DHT22;39197;53.200;5.792;2023-02-20T10:50:48;9.10;99.90
53310;DHT22;39197;53.200;5.792;2023-02-20T10:56:06;9.30;99.90
53310;DHT22;39197;53.200;5.792;2023-02-20T10:59:05;9.20;99.90
53310;DHT22;39197;53.200;5.792;2023-02-20T11:01:34;9.20;99.90
53310;DHT22;39197;53.200;5.792;2023-02-20T11:06:31;9.30;99.90
53310;DHT22;39197;53.200;5.792;2023-02-20T11:08:58;9.40;99.90
53310;DHT22;39197;53.200;5.792;2023-02-20T11:11:35;9.40;99.90
53310;DHT22;39197;53.200;5.792;2023-02-20T11:14:10;9.40;99.90
53310;DHT22;39197;53.200;5.792;2023-02-20T11:16:42;9.50;99.90
53310;DHT22;39197;53.200;5.792;2023-02-20T11:19:20;9.40;99.90
53310;DHT22;39197;53.200;5.792;2023-02-20T11:21:49;9.30;99.90
53310;DHT22;39197;53.200;5.792;2023-02-20T11:24:26;9.40;99.90
53310;DHT22;39197;53.200;5.792;2023-02-20T11:27:21;9.40;99.90
53310;DHT22;39197;53.200;5.792;2023-02-20T11:30:02;9.40;99.90
53310;DHT22;39197;53.200;5.792;2023-02-20T11:32:32;9.40;99.90
53310;DHT22;39197;53.200;5.792;2023-02-20T11:35:23;9.60;99.90
53310;DHT22;39197;53.200;5.792;2023-02-20T11:40:36;9.50;99.90
53310;DHT22;39197;53.200;5.792;2023-02-20T11:45:43;9.40;99.90
53310;DHT22;39197;53.200;5.792;2023-02-20T11:48:09;9.60;99.90
53310;DHT22;39197;53.200;5.792;2023-02-20T11:50:42;9.60;99.90
53310;DHT22;39197;53.200;5.792;2023-02-20T11:55:43;9.60;99.90
53310;DHT22;39197;53.200;5.792;2023-02-20T11:58:23;9.80;99.90
53310;DHT22;39197;53.200;5.792;2023-02-20T12:00:50;9.80;99.90
53310;DHT22;39197;53.200;5.792;2023-02-20T12:03:28;9.80;99.90
53310;DHT22;39197;53.200;5.792;2023-02-20T12:05:56;9.80;99.90
53310;DHT22;39197;53.200;5.792;2023-02-20T12:11:11;9.80;99.90
53310;DHT22;39197;53.200;5.792;2023-02-20T12:13:58;10.00;99.90
53310;DHT22;39197;53.200;5.792;2023-02-20T12:19:24;10.20;99.90
53310;DHT22;39197;53.200;5.792;2023-02-20T12:22:03;10.20;99.90
53310;DHT22;39197;53.200;5.792;2023-02-20T12:30:02;10.50;99.90
53310;DHT22;39197;53.200;5.792;2023-02-20T12:35:28;10.60;99.90
53310;DHT22;39197;53.200;5.792;2023-02-20T12:43:53;10.60;99.90
53310;DHT22;39197;53.200;5.792;2023-02-20T12:46:33;10.70;99.90
53310;DHT22;39197;53.200;5.792;2023-02-20T12:51:52;10.90;99.90
53310;DHT22;39197;53.200;5.792;2023-02-20T12:59:46;10.70;99.90
53310;DHT22;39197;53.200;5.792;2023-02-20T13:04:55;10.90;99.90
53310;DHT22;39197;53.200;5.792;2023-02-20T13:07:33;10.80;99.90
53310;DHT22;39197;53.200;5.792;2023-02-20T13:12:42;10.80;99.90
53310;DHT22;39197;53.200;5.792;2023-02-20T13:15:29;10.90;99.90
53310;DHT22;39197;53.200;5.792;2023-02-20T13:18:13;10.90;99.90
53310;DHT22;39197;53.200;5.792;2023-02-20T13:21:09;10.90;99.90
53310;DHT22;39197;53.200;5.792;2023-02-20T13:23:37;10.80;99.90
53310;DHT22;39197;53.200;5.792;2023-02-20T13:28:52;10.60;99.90
53310;DHT22;39197;53.200;5.792;2023-02-20T13:31:21;10.60;99.90
53310;DHT22;39197;53.200;5.792;2023-02-20T13:36:43;10.50;99.90
53310;DHT22;39197;53.200;5.792;2023-02-20T13:52:45;10.60;99.90
53310;DHT22;39197;53.200;5.792;2023-02-20T13:55:24;10.60;99.90
53310;DHT22;39197;53.200;5.792;2023-02-20T13:57:55;10.70;99.90
53310;DHT22;39197;53.200;5.792;2023-02-20T14:02:59;10.60;99.90
53310;DHT22;39197;53.200;5.792;2023-02-20T14:05:28;10.70;99.90
53310;DHT22;39197;53.200;5.792;2023-02-20T14:07:56;10.90;99.90
53310;DHT22;39197;53.200;5.792;2023-02-20T14:10:31;10.80;99.90
53310;DHT22;39197;53.200;5.792;2023-02-20T14:13:04;11.10;99.90
53310;DHT22;39197;53.200;5.792;2023-02-20T14:15:32;11.30;99.90
53310;DHT22;39197;53.200;5.792;2023-02-20T14:17:59;11.40;99.90
53310;DHT22;39197;53.200;5.792;2023-02-20T14:20:34;11.50;99.90
53310;DHT22;39197;53.200;5.792;2023-02-20T14:23:24;11.80;99.90
53310;DHT22;39197;53.200;5.792;2023-02-20T14:25:54;11.90;99.90
53310;DHT22;39197;53.200;5.792;2023-02-20T14:28:20;11.70;99.90
53310;DHT22;39197;53.200;5.792;2023-02-20T14:30:46;12.00;99.90
53310;DHT22;39197;53.200;5.792;2023-02-20T14:33:28;12.30;99.90
53310;DHT22;39197;53.200;5.792;2023-02-20T14:38:51;12.70;99.90
53310;DHT22;39197;53.200;5.792;2023-02-20T14:41:21;12.60;99.90
53310;DHT22;39197;53.200;5.792;2023-02-20T14:43:57;12.40;99.90
53310;DHT22;39197;53.200;5.792;2023-02-20T14:46:29;12.10;99.90
53310;DHT22;39197;53.200;5.792;2023-02-20T14:49:13;12.40;99.90
53310;DHT22;39197;53.200;5.792;2023-02-20T14:51:40;12.40;99.90
53310;DHT22;39197;53.200;5.792;2023-02-20T14:54:17;12.10;99.90
53310;DHT22;39197;53.200;5.792;2023-02-20T14:56:43;12.30;99.90
53310;DHT22;39197;53.200;5.792;2023-02-20T14:59:33;12.30;99.90
53310;DHT22;39197;53.200;5.792;2023-02-20T15:04:46;12.50;99.90
53310;DHT22;39197;53.200;5.792;2023-02-20T15:07:12;12.70;99.90
53310;DHT22;39197;53.200;5.792;2023-02-20T15:09:41;12.50;99.90
53310;DHT22;39197;53.200;5.792;2023-02-20T15:12:21;12.60;99.90
53310;DHT22;39197;53.200;5.792;2023-02-20T15:15:03;12.40;99.90
53310;DHT22;39197;53.200;5.792;2023-02-20T15:17:34;12.00;99.90
53310;DHT22;39197;53.200;5.792;2023-02-20T15:25:56;12.00;99.90
53310;DHT22;39197;53.200;5.792;2023-02-20T15:28:28;11.90;99.90
53310;DHT22;39197;53.200;5.792;2023-02-20T15:33:39;11.60;99.90
53310;DHT22;39197;53.200;5.792;2023-02-20T15:36:10;11.50;99.90
53310;DHT22;39197;53.200;5.792;2023-02-20T15:38:36;11.50;99.90
53310;DHT22;39197;53.200;5.792;2023-02-20T15:41:03;11.60;99.90
53310;DHT22;39197;53.200;5.792;2023-02-20T15:43:31;11.60;99.90
53310;DHT22;39197;53.200;5.792;2023-02-20T15:45:56;11.30;99.90
53310;DHT22;39197;53.200;5.792;2023-02-20T15:48:22;11.10;99.90
53310;DHT22;39197;53.200;5.792;2023-02-20T15:50:49;11.10;99.90
53310;DHT22;39197;53.200;5.792;2023-02-20T15:53:20;11.10;99.90
53310;DHT22;39197;53.200;5.792;2023-02-20T15:55:46;11.20;99.90
53310;DHT22;39197;53.200;5.792;2023-02-20T15:58:28;11.30;99.90
53310;DHT22;39197;53.200;5.792;2023-02-20T16:00:55;10.90;99.90
53310;DHT22;39197;53.200;5.792;2023-02-20T16:03:22;10.90;99.90
53310;DHT22;39197;53.200;5.792;2023-02-20T16:05:48;10.60;99.90
53310;DHT22;39197;53.200;5.792;2023-02-20T16:08:14;10.70;99.90
53310;DHT22;39197;53.200;5.792;2023-02-20T16:10:40;10.70;99.90
53310;DHT22;39197;53.200;5.792;2023-02-20T16:13:07;10.60;99.90
53310;DHT22;39197;53.200;5.792;2023-02-20T16:15:40;10.60;99.90
53310;DHT22;39197;53.200;5.792;2023-02-20T16:18:07;10.40;99.90
53310;DHT22;39197;53.200;5.792;2023-02-20T16:20:33;10.40;99.90
53310;DHT22;39197;53.200;5.792;2023-02-20T16:22:59;10.30;99.90
53310;DHT22;39197;53.200;5.792;2023-02-20T16:25:25;10.00;99.90
53310;DHT22;39197;53.200;5.792;2023-02-20T16:27:52;10.10;99.90
53310;DHT22;39197;53.200;5.792;2023-02-20T16:30:26;10.00;99.90
53310;DHT22;39197;53.200;5.792;2023-02-20T16:32:52;9.80;99.90
53310;DHT22;39197;53.200;5.792;2023-02-20T16:35:18;9.70;99.90
53310;DHT22;39197;53.200;5.792;2023-02-20T16:37:44;9.60;99.90
53310;DHT22;39197;53.200;5.792;2023-02-20T16:40:11;9.50;99.90
53310;DHT22;39197;53.200;5.792;2023-02-20T16:42:37;9.50;99.90
53310;DHT22;39197;53.200;5.792;2023-02-20T16:45:11;9.50;99.90
53310;DHT22;39197;53.200;5.792;2023-02-20T16:47:37;9.40;99.90
53310;DHT22;39197;53.200;5.792;2023-02-20T16:50:04;9.30;99.90
53310;DHT22;39197;53.200;5.792;2023-02-20T16:52:34;9.30;99.90
53310;DHT22;39197;53.200;5.792;2023-02-20T16:55:01;9.30;99.90
53310;DHT22;39197;53.200;5.792;2023-02-20T16:57:29;9.30;99.90
53310;DHT22;39197;53.200;5.792;2023-02-20T16:59:56;9.20;99.90
53310;DHT22;39197;53.200;5.792;2023-02-20T17:02:31;9.20;99.90
53310;DHT22;39197;53.200;5.792;2023-02-20T17:04:58;9.10;99.90
53310;DHT22;39197;53.200;5.792;2023-02-20T17:07:24;9.20;99.90
53310;DHT22;39197;53.200;5.792;2023-02-20T17:09:51;9.20;99.90
53310;DHT22;39197;53.200;5.792;2023-02-20T17:12:19;9.10;99.90
53310;DHT22;39197;53.200;5.792;2023-02-20T17:14:45;9.20;99.90
53310;DHT22;39197;53.200;5.792;2023-02-20T17:17:13;9.20;99.90
53310;DHT22;39197;53.200;5.792;2023-02-20T17:19:40;9.20;99.90
53310;DHT22;39197;53.200;5.792;2023-02-20T17:22:07;9.20;99.90
53310;DHT22;39197;53.200;5.792;2023-02-20T17:24:33;9.20;99.90
53310;DHT22;39197;53.200;5.792;2023-02-20T17:27:00;9.10;99.90
53310;DHT22;39197;53.200;5.792;2023-02-20T17:29:26;9.20;99.90
53310;DHT22;39197;53.200;5.792;2023-02-20T17:31:52;9.20;99.90
53310;DHT22;39197;53.200;5.792;2023-02-20T17:34:18;9.10;99.90
53310;DHT22;39197;53.200;5.792;2023-02-20T17:36:44;9.10;99.90
53310;DHT22;39197;53.200;5.792;2023-02-20T17:39:19;9.10;99.90
53310;DHT22;39197;53.200;5.792;2023-02-20T17:41:47;9.10;99.90
53310;DHT22;39197;53.200;5.792;2023-02-20T17:44:19;9.00;99.90
53310;DHT22;39197;53.200;5.792;2023-02-20T17:46:45;9.00;99.90
53310;DHT22;39197;53.200;5.792;2023-02-20T17:49:13;9.10;99.90
53310;DHT22;39197;53.200;5.792;2023-02-20T17:51:41;9.00;99.90
53310;DHT22;39197;53.200;5.792;2023-02-20T17:54:07;9.00;99.90
53310;DHT22;39197;53.200;5.792;2023-02-20T17:56:32;9.10;99.90